sensor_id;sensor_type;location;lat;lon;timestamp;P1;durP1;ratioP1;P2;durP2;ratioP2
15876;SDS011;8037;51.666;7.834;2023-09-07T00:01:57;3.47;;;2.70;;
15876;SDS011;8037;51.666;7.834;2023-09-07T00:04:23;4.30;;;2.77;;
15876;SDS011;8037;51.666;7.834;2023-09-07T00:06:49;2.97;;;2.77;;
15876;SDS011;8037;51.666;7.834;2023-09-07T00:09:16;8.63;;;3.90;;
15876;SDS011;8037;51.666;7.834;2023-09-07T00:11:44;4.50;;;2.77;;
15876;SDS011;8037;51.666;7.834;2023-09-07T00:14:11;5.33;;;3.60;;
15876;SDS011;8037;51.666;7.834;2023-09-07T00:16:45;5.30;;;3.10;;
15876;SDS011;8037;51.666;7.834;2023-09-07T00:19:14;5.63;;;2.80;;
15876;SDS011;8037;51.666;7.834;2023-09-07T00:21:43;2.90;;;2.70;;
15876;SDS011;8037;51.666;7.834;2023-09-07T00:24:09;3.83;;;3.13;;
15876;SDS011;8037;51.666;7.834;2023-09-07T00:26:35;10.33;;;3.33;;
15876;SDS011;8037;51.666;7.834;2023-09-07T00:29:01;5.57;;;3.50;;
15876;SDS011;8037;51.666;7.834;2023-09-07T00:31:28;3.63;;;3.30;;
15876;SDS011;8037;51.666;7.834;2023-09-07T00:33:54;4.17;;;3.77;;
15876;SDS011;8037;51.666;7.834;2023-09-07T00:36:20;4.50;;;4.10;;
15876;SDS011;8037;51.666;7.834;2023-09-07T00:38:46;3.47;;;3.07;;
15876;SDS011;8037;51.666;7.834;2023-09-07T00:41:13;3.00;;;2.80;;
15876;SDS011;8037;51.666;7.834;2023-09-07T00:43:51;3.33;;;2.50;;
15876;SDS011;8037;51.666;7.834;2023-09-07T00:46:17;3.90;;;3.60;;
15876;SDS011;8037;51.666;7.834;2023-09-07T00:48:51;4.00;;;3.20;;
15876;SDS011;8037;51.666;7.834;2023-09-07T00:51:17;6.33;;;3.87;;
15876;SDS011;8037;51.666;7.834;2023-09-07T00:53:44;4.33;;;3.97;;
15876;SDS011;8037;51.666;7.834;2023-09-07T00:56:19;6.73;;;3.20;;
15876;SDS011;8037;51.666;7.834;2023-09-07T00:58:45;5.47;;;3.37;;
15876;SDS011;8037;51.666;7.834;2023-09-07T01:01:14;6.67;;;3.80;;
15876;SDS011;8037;51.666;7.834;2023-09-07T01:03:41;3.93;;;3.30;;
15876;SDS011;8037;51.666;7.834;2023-09-07T01:06:18;5.60;;;3.30;;
15876;SDS011;8037;51.666;7.834;2023-09-07T01:08:49;3.67;;;3.37;;
15876;SDS011;8037;51.666;7.834;2023-09-07T01:11:15;3.30;;;3.00;;
15876;SDS011;8037;51.666;7.834;2023-09-07T01:13:42;6.20;;;3.47;;
15876;SDS011;8037;51.666;7.834;2023-09-07T01:16:09;4.17;;;3.87;;
15876;SDS011;8037;51.666;7.834;2023-09-07T01:18:39;2.87;;;2.70;;
15876;SDS011;8037;51.666;7.834;2023-09-07T01:21:05;3.23;;;3.03;;
15876;SDS011;8037;51.666;7.834;2023-09-07T01:23:32;3.20;;;3.00;;
15876;SDS011;8037;51.666;7.834;2023-09-07T01:25:58;5.87;;;3.50;;
15876;SDS011;8037;51.666;7.834;2023-09-07T01:28:24;4.97;;;4.00;;
15876;SDS011;8037;51.666;7.834;2023-09-07T01:30:51;5.63;;;3.23;;
15876;SDS011;8037;51.666;7.834;2023-09-07T01:33:17;5.53;;;3.63;;
15876;SDS011;8037;51.666;7.834;2023-09-07T01:35:43;3.53;;;3.23;;
15876;SDS011;8037;51.666;7.834;2023-09-07T01:38:10;3.83;;;3.53;;
15876;SDS011;8037;51.666;7.834;2023-09-07T01:40:36;2.90;;;2.70;;
15876;SDS011;8037;51.666;7.834;2023-09-07T01:43:02;3.33;;;3.10;;
15876;SDS011;8037;51.666;7.834;2023-09-07T01:45:28;3.47;;;3.17;;
15876;SDS011;8037;51.666;7.834;2023-09-07T01:47:54;4.80;;;3.27;;
15876;SDS011;8037;51.666;7.834;2023-09-07T01:50:20;3.77;;;3.27;;
15876;SDS011;8037;51.666;7.834;2023-09-07T01:52:47;7.83;;;3.23;;
15876;SDS011;8037;51.666;7.834;2023-09-07T01:55:15;4.03;;;3.73;;
15876;SDS011;8037;51.666;7.834;2023-09-07T01:57:42;4.87;;;3.83;;
15876;SDS011;8037;51.666;7.834;2023-09-07T02:00:09;4.00;;;3.43;;
15876;SDS011;8037;51.666;7.834;2023-09-07T02:02:35;3.70;;;3.40;;
15876;SDS011;8037;51.666;7.834;2023-09-07T02:05:01;9.17;;;3.07;;
15876;SDS011;8037;51.666;7.834;2023-09-07T02:07:27;3.90;;;3.60;;
15876;SDS011;8037;51.666;7.834;2023-09-07T02:09:53;3.30;;;3.10;;
15876;SDS011;8037;51.666;7.834;2023-09-07T02:12:19;3.07;;;2.80;;
15876;SDS011;8037;51.666;7.834;2023-09-07T02:14:45;9.40;;;2.47;;
15876;SDS011;8037;51.666;7.834;2023-09-07T02:17:11;3.77;;;3.43;;
15876;SDS011;8037;51.666;7.834;2023-09-07T02:19:42;4.50;;;3.40;;
15876;SDS011;8037;51.666;7.834;2023-09-07T02:22:08;5.20;;;3.60;;
15876;SDS011;8037;51.666;7.834;2023-09-07T02:24:34;4.43;;;3.60;;
15876;SDS011;8037;51.666;7.834;2023-09-07T02:27:00;6.67;;;3.97;;
15876;SDS011;8037;51.666;7.834;2023-09-07T02:29:26;9.53;;;2.80;;
15876;SDS011;8037;51.666;7.834;2023-09-07T02:31:52;4.00;;;3.43;;
15876;SDS011;8037;51.666;7.834;2023-09-07T02:34:18;5.23;;;3.67;;
15876;SDS011;8037;51.666;7.834;2023-09-07T02:36:44;11.67;;;3.20;;
15876;SDS011;8037;51.666;7.834;2023-09-07T02:39:10;8.23;;;3.80;;
15876;SDS011;8037;51.666;7.834;2023-09-07T02:41:46;7.63;;;3.70;;
15876;SDS011;8037;51.666;7.834;2023-09-07T02:44:12;6.43;;;3.93;;
15876;SDS011;8037;51.666;7.834;2023-09-07T02:46:38;3.83;;;3.03;;
15876;SDS011;8037;51.666;7.834;2023-09-07T02:49:04;7.37;;;3.20;;
15876;SDS011;8037;51.666;7.834;2023-09-07T02:51:30;4.20;;;3.73;;
15876;SDS011;8037;51.666;7.834;2023-09-07T02:53:56;4.00;;;3.70;;
15876;SDS011;8037;51.666;7.834;2023-09-07T02:56:22;9.60;;;3.27;;
15876;SDS011;8037;51.666;7.834;2023-09-07T02:58:48;3.80;;;3.50;;
15876;SDS011;8037;51.666;7.834;2023-09-07T03:01:14;3.87;;;3.57;;
15876;SDS011;8037;51.666;7.834;2023-09-07T03:03:44;4.53;;;3.67;;
15876;SDS011;8037;51.666;7.834;2023-09-07T03:06:14;2.70;;;2.53;;
15876;SDS011;8037;51.666;7.834;2023-09-07T03:08:41;3.50;;;3.30;;
15876;SDS011;8037;51.666;7.834;2023-09-07T03:11:08;3.43;;;2.90;;
15876;SDS011;8037;51.666;7.834;2023-09-07T03:13:34;8.63;;;4.80;;
15876;SDS011;8037;51.666;7.834;2023-09-07T03:16:00;7.63;;;4.30;;
15876;SDS011;8037;51.666;7.834;2023-09-07T03:18:26;4.33;;;3.60;;
15876;SDS011;8037;51.666;7.834;2023-09-07T03:20:53;3.13;;;2.93;;
15876;SDS011;8037;51.666;7.834;2023-09-07T03:23:20;6.23;;;3.47;;
15876;SDS011;8037;51.666;7.834;2023-09-07T03:25:46;5.00;;;3.77;;
15876;SDS011;8037;51.666;7.834;2023-09-07T03:28:12;5.30;;;3.93;;
15876;SDS011;8037;51.666;7.834;2023-09-07T03:30:38;3.33;;;3.03;;
15876;SDS011;8037;51.666;7.834;2023-09-07T03:33:05;5.00;;;3.70;;
15876;SDS011;8037;51.666;7.834;2023-09-07T03:35:31;5.50;;;3.27;;
15876;SDS011;8037;51.666;7.834;2023-09-07T03:37:57;4.13;;;3.73;;
15876;SDS011;8037;51.666;7.834;2023-09-07T03:40:23;4.30;;;3.57;;
15876;SDS011;8037;51.666;7.834;2023-09-07T03:42:50;5.07;;;3.60;;
15876;SDS011;8037;51.666;7.834;2023-09-07T03:45:15;5.90;;;4.10;;
15876;SDS011;8037;51.666;7.834;2023-09-07T03:47:41;2.57;;;2.47;;
15876;SDS011;8037;51.666;7.834;2023-09-07T03:50:08;4.60;;;4.00;;
15876;SDS011;8037;51.666;7.834;2023-09-07T03:52:34;3.40;;;3.10;;
15876;SDS011;8037;51.666;7.834;2023-09-07T03:55:00;3.87;;;3.57;;
15876;SDS011;8037;51.666;7.834;2023-09-07T03:57:26;4.70;;;3.23;;
15876;SDS011;8037;51.666;7.834;2023-09-07T03:59:53;5.90;;;3.90;;
15876;SDS011;8037;51.666;7.834;2023-09-07T04:02:21;3.50;;;3.20;;
15876;SDS011;8037;51.666;7.834;2023-09-07T04:04:48;3.50;;;3.20;;
15876;SDS011;8037;51.666;7.834;2023-09-07T04:07:14;4.50;;;3.90;;
15876;SDS011;8037;51.666;7.834;2023-09-07T04:09:40;5.57;;;3.87;;
15876;SDS011;8037;51.666;7.834;2023-09-07T04:12:06;3.33;;;3.03;;
15876;SDS011;8037;51.666;7.834;2023-09-07T04:14:32;4.07;;;3.67;;
15876;SDS011;8037;51.666;7.834;2023-09-07T04:16:58;5.63;;;3.60;;
15876;SDS011;8037;51.666;7.834;2023-09-07T04:19:24;6.23;;;3.93;;
15876;SDS011;8037;51.666;7.834;2023-09-07T04:21:50;6.37;;;3.17;;
15876;SDS011;8037;51.666;7.834;2023-09-07T04:24:16;4.67;;;4.20;;
15876;SDS011;8037;51.666;7.834;2023-09-07T04:26:42;3.80;;;3.50;;
15876;SDS011;8037;51.666;7.834;2023-09-07T04:29:08;5.43;;;3.40;;
15876;SDS011;8037;51.666;7.834;2023-09-07T04:31:35;4.80;;;3.30;;
15876;SDS011;8037;51.666;7.834;2023-09-07T04:34:01;5.23;;;3.97;;
15876;SDS011;8037;51.666;7.834;2023-09-07T04:36:43;4.53;;;4.17;;
15876;SDS011;8037;51.666;7.834;2023-09-07T04:39:10;3.33;;;3.10;;
15876;SDS011;8037;51.666;7.834;2023-09-07T04:41:36;3.77;;;3.40;;
15876;SDS011;8037;51.666;7.834;2023-09-07T04:44:02;4.13;;;3.57;;
15876;SDS011;8037;51.666;7.834;2023-09-07T04:46:28;3.60;;;2.80;;
15876;SDS011;8037;51.666;7.834;2023-09-07T04:48:54;3.77;;;3.53;;
15876;SDS011;8037;51.666;7.834;2023-09-07T04:51:20;2.90;;;2.70;;
15876;SDS011;8037;51.666;7.834;2023-09-07T04:53:47;3.87;;;3.40;;
15876;SDS011;8037;51.666;7.834;2023-09-07T04:56:13;6.23;;;4.00;;
15876;SDS011;8037;51.666;7.834;2023-09-07T04:58:41;4.27;;;3.87;;
15876;SDS011;8037;51.666;7.834;2023-09-07T05:01:07;3.77;;;3.47;;
15876;SDS011;8037;51.666;7.834;2023-09-07T05:03:34;3.80;;;3.50;;
15876;SDS011;8037;51.666;7.834;2023-09-07T05:06:00;4.50;;;3.40;;
15876;SDS011;8037;51.666;7.834;2023-09-07T05:08:27;5.10;;;3.13;;
15876;SDS011;8037;51.666;7.834;2023-09-07T05:10:57;4.73;;;4.23;;
15876;SDS011;8037;51.666;7.834;2023-09-07T05:13:23;10.17;;;3.63;;
15876;SDS011;8037;51.666;7.834;2023-09-07T05:15:50;4.30;;;4.00;;
15876;SDS011;8037;51.666;7.834;2023-09-07T05:18:16;11.57;;;3.23;;
15876;SDS011;8037;51.666;7.834;2023-09-07T05:20:42;3.80;;;3.50;;
15876;SDS011;8037;51.666;7.834;2023-09-07T05:23:13;3.53;;;3.23;;
15876;SDS011;8037;51.666;7.834;2023-09-07T05:25:47;3.13;;;2.93;;
15876;SDS011;8037;51.666;7.834;2023-09-07T05:28:14;5.60;;;3.23;;
15876;SDS011;8037;51.666;7.834;2023-09-07T05:30:40;11.13;;;4.20;;
15876;SDS011;8037;51.666;7.834;2023-09-07T05:33:07;3.83;;;3.53;;
15876;SDS011;8037;51.666;7.834;2023-09-07T05:35:33;7.80;;;3.07;;
15876;SDS011;8037;51.666;7.834;2023-09-07T05:37:59;4.30;;;3.60;;
15876;SDS011;8037;51.666;7.834;2023-09-07T05:40:25;7.03;;;3.83;;
15876;SDS011;8037;51.666;7.834;2023-09-07T05:42:51;3.30;;;3.10;;
15876;SDS011;8037;51.666;7.834;2023-09-07T05:45:17;6.90;;;3.90;;
15876;SDS011;8037;51.666;7.834;2023-09-07T05:47:43;4.07;;;3.30;;
15876;SDS011;8037;51.666;7.834;2023-09-07T05:50:09;6.30;;;3.83;;
15876;SDS011;8037;51.666;7.834;2023-09-07T05:52:35;5.20;;;3.50;;
15876;SDS011;8037;51.666;7.834;2023-09-07T05:55:01;5.73;;;3.30;;
15876;SDS011;8037;51.666;7.834;2023-09-07T05:57:27;4.83;;;4.30;;
15876;SDS011;8037;51.666;7.834;2023-09-07T05:59:53;5.33;;;3.60;;
15876;SDS011;8037;51.666;7.834;2023-09-07T06:02:19;4.10;;;3.70;;
15876;SDS011;8037;51.666;7.834;2023-09-07T06:04:46;4.03;;;3.63;;
15876;SDS011;8037;51.666;7.834;2023-09-07T06:07:12;5.90;;;4.50;;
15876;SDS011;8037;51.666;7.834;2023-09-07T06:09:37;4.80;;;4.33;;
15876;SDS011;8037;51.666;7.834;2023-09-07T06:12:06;18.33;;;4.20;;
15876;SDS011;8037;51.666;7.834;2023-09-07T06:14:32;7.43;;;3.97;;
15876;SDS011;8037;51.666;7.834;2023-09-07T06:16:58;10.03;;;3.43;;
15876;SDS011;8037;51.666;7.834;2023-09-07T06:19:24;17.10;;;5.00;;
15876;SDS011;8037;51.666;7.834;2023-09-07T06:21:50;5.53;;;4.10;;
15876;SDS011;8037;51.666;7.834;2023-09-07T06:24:16;5.80;;;3.83;;
15876;SDS011;8037;51.666;7.834;2023-09-07T06:26:48;10.80;;;4.30;;
15876;SDS011;8037;51.666;7.834;2023-09-07T06:29:17;6.10;;;4.60;;
15876;SDS011;8037;51.666;7.834;2023-09-07T06:31:43;6.63;;;3.43;;
15876;SDS011;8037;51.666;7.834;2023-09-07T06:34:09;8.10;;;3.80;;
15876;SDS011;8037;51.666;7.834;2023-09-07T06:36:35;7.10;;;5.13;;
15876;SDS011;8037;51.666;7.834;2023-09-07T06:39:01;6.73;;;3.90;;
15876;SDS011;8037;51.666;7.834;2023-09-07T06:41:27;6.87;;;5.63;;
15876;SDS011;8037;51.666;7.834;2023-09-07T06:43:53;3.63;;;3.33;;
15876;SDS011;8037;51.666;7.834;2023-09-07T06:46:20;10.07;;;4.30;;
15876;SDS011;8037;51.666;7.834;2023-09-07T06:48:46;9.33;;;4.57;;
15876;SDS011;8037;51.666;7.834;2023-09-07T06:51:12;7.67;;;5.37;;
15876;SDS011;8037;51.666;7.834;2023-09-07T06:53:38;5.13;;;3.87;;
15876;SDS011;8037;51.666;7.834;2023-09-07T06:56:04;10.30;;;6.27;;
15876;SDS011;8037;51.666;7.834;2023-09-07T06:58:31;7.87;;;4.50;;
15876;SDS011;8037;51.666;7.834;2023-09-07T07:00:59;6.87;;;4.30;;
15876;SDS011;8037;51.666;7.834;2023-09-07T07:03:26;24.20;;;5.17;;
15876;SDS011;8037;51.666;7.834;2023-09-07T07:05:52;8.47;;;5.13;;
15876;SDS011;8037;51.666;7.834;2023-09-07T07:08:18;5.93;;;4.90;;
15876;SDS011;8037;51.666;7.834;2023-09-07T07:10:44;4.60;;;3.67;;
15876;SDS011;8037;51.666;7.834;2023-09-07T07:13:10;8.23;;;4.13;;
15876;SDS011;8037;51.666;7.834;2023-09-07T07:15:36;7.40;;;3.63;;
15876;SDS011;8037;51.666;7.834;2023-09-07T07:18:02;14.03;;;3.67;;
15876;SDS011;8037;51.666;7.834;2023-09-07T07:20:34;3.50;;;3.20;;
15876;SDS011;8037;51.666;7.834;2023-09-07T07:23:00;4.53;;;4.00;;
15876;SDS011;8037;51.666;7.834;2023-09-07T07:25:25;3.40;;;3.10;;
15876;SDS011;8037;51.666;7.834;2023-09-07T07:27:51;4.00;;;2.87;;
15876;SDS011;8037;51.666;7.834;2023-09-07T07:30:17;3.93;;;3.63;;
15876;SDS011;8037;51.666;7.834;2023-09-07T07:32:43;2.83;;;2.50;;
15876;SDS011;8037;51.666;7.834;2023-09-07T07:35:09;3.33;;;3.13;;
15876;SDS011;8037;51.666;7.834;2023-09-07T07:37:35;3.00;;;2.80;;
15876;SDS011;8037;51.666;7.834;2023-09-07T07:40:01;11.17;;;3.90;;
15876;SDS011;8037;51.666;7.834;2023-09-07T07:42:27;3.37;;;3.07;;
15876;SDS011;8037;51.666;7.834;2023-09-07T07:44:53;13.70;;;3.50;;
15876;SDS011;8037;51.666;7.834;2023-09-07T07:47:19;6.83;;;3.80;;
15876;SDS011;8037;51.666;7.834;2023-09-07T07:49:44;6.80;;;3.70;;
15876;SDS011;8037;51.666;7.834;2023-09-07T07:52:10;5.37;;;3.13;;
15876;SDS011;8037;51.666;7.834;2023-09-07T07:54:36;3.67;;;3.20;;
15876;SDS011;8037;51.666;7.834;2023-09-07T07:57:01;4.60;;;3.17;;
15876;SDS011;8037;51.666;7.834;2023-09-07T07:59:27;3.27;;;2.50;;
15876;SDS011;8037;51.666;7.834;2023-09-07T08:01:53;10.20;;;3.23;;
15876;SDS011;8037;51.666;7.834;2023-09-07T08:04:19;2.63;;;2.43;;
15876;SDS011;8037;51.666;7.834;2023-09-07T08:06:45;6.83;;;3.20;;
15876;SDS011;8037;51.666;7.834;2023-09-07T08:09:11;10.90;;;3.07;;
15876;SDS011;8037;51.666;7.834;2023-09-07T08:11:38;3.30;;;3.00;;
15876;SDS011;8037;51.666;7.834;2023-09-07T08:14:05;4.47;;;3.10;;
15876;SDS011;8037;51.666;7.834;2023-09-07T08:16:31;5.50;;;3.30;;
15876;SDS011;8037;51.666;7.834;2023-09-07T08:18:57;3.50;;;2.50;;
15876;SDS011;8037;51.666;7.834;2023-09-07T08:21:23;6.13;;;3.03;;
15876;SDS011;8037;51.666;7.834;2023-09-07T08:23:48;9.77;;;3.10;;
15876;SDS011;8037;51.666;7.834;2023-09-07T08:26:14;5.30;;;2.83;;
15876;SDS011;8037;51.666;7.834;2023-09-07T08:28:40;3.80;;;2.90;;
15876;SDS011;8037;51.666;7.834;2023-09-07T08:31:07;3.67;;;3.37;;
15876;SDS011;8037;51.666;7.834;2023-09-07T08:33:35;2.77;;;2.40;;
15876;SDS011;8037;51.666;7.834;2023-09-07T08:36:05;2.80;;;2.60;;
15876;SDS011;8037;51.666;7.834;2023-09-07T08:38:31;2.83;;;2.63;;
15876;SDS011;8037;51.666;7.834;2023-09-07T08:41:00;4.13;;;3.17;;
15876;SDS011;8037;51.666;7.834;2023-09-07T08:43:26;2.80;;;2.70;;
15876;SDS011;8037;51.666;7.834;2023-09-07T08:45:55;5.43;;;3.87;;
15876;SDS011;8037;51.666;7.834;2023-09-07T08:48:25;3.37;;;3.07;;
15876;SDS011;8037;51.666;7.834;2023-09-07T08:50:52;3.60;;;3.30;;
15876;SDS011;8037;51.666;7.834;2023-09-07T08:53:19;2.43;;;2.23;;
15876;SDS011;8037;51.666;7.834;2023-09-07T08:55:45;5.33;;;2.90;;
15876;SDS011;8037;51.666;7.834;2023-09-07T08:58:11;6.77;;;2.93;;
15876;SDS011;8037;51.666;7.834;2023-09-07T09:00:37;3.30;;;3.00;;
15876;SDS011;8037;51.666;7.834;2023-09-07T09:03:08;3.10;;;2.50;;
15876;SDS011;8037;51.666;7.834;2023-09-07T09:05:34;6.70;;;2.90;;
15876;SDS011;8037;51.666;7.834;2023-09-07T09:08:00;2.90;;;2.70;;
15876;SDS011;8037;51.666;7.834;2023-09-07T09:10:28;4.20;;;2.03;;
15876;SDS011;8037;51.666;7.834;2023-09-07T09:12:54;2.87;;;2.60;;
15876;SDS011;8037;51.666;7.834;2023-09-07T09:15:21;2.97;;;2.63;;
15876;SDS011;8037;51.666;7.834;2023-09-07T09:17:47;8.80;;;3.30;;
15876;SDS011;8037;51.666;7.834;2023-09-07T09:20:19;5.43;;;2.83;;
15876;SDS011;8037;51.666;7.834;2023-09-07T09:22:46;2.90;;;2.60;;
15876;SDS011;8037;51.666;7.834;2023-09-07T09:25:12;3.23;;;2.93;;
15876;SDS011;8037;51.666;7.834;2023-09-07T09:27:37;3.67;;;2.30;;
15876;SDS011;8037;51.666;7.834;2023-09-07T09:30:04;4.10;;;3.03;;
15876;SDS011;8037;51.666;7.834;2023-09-07T09:32:30;4.60;;;3.60;;
15876;SDS011;8037;51.666;7.834;2023-09-07T09:34:56;9.37;;;3.33;;
15876;SDS011;8037;51.666;7.834;2023-09-07T09:37:22;2.27;;;2.07;;
15876;SDS011;8037;51.666;7.834;2023-09-07T09:39:49;7.50;;;6.60;;
15876;SDS011;8037;51.666;7.834;2023-09-07T09:42:16;3.43;;;3.00;;
15876;SDS011;8037;51.666;7.834;2023-09-07T09:44:43;3.37;;;3.00;;
15876;SDS011;8037;51.666;7.834;2023-09-07T09:47:09;4.73;;;2.70;;
15876;SDS011;8037;51.666;7.834;2023-09-07T09:49:36;5.50;;;5.00;;
15876;SDS011;8037;51.666;7.834;2023-09-07T09:52:03;4.07;;;3.77;;
15876;SDS011;8037;51.666;7.834;2023-09-07T09:54:30;2.63;;;2.33;;
15876;SDS011;8037;51.666;7.834;2023-09-07T09:56:56;2.27;;;2.10;;
15876;SDS011;8037;51.666;7.834;2023-09-07T09:59:22;2.77;;;2.57;;
15876;SDS011;8037;51.666;7.834;2023-09-07T10:01:48;2.93;;;2.40;;
15876;SDS011;8037;51.666;7.834;2023-09-07T10:04:16;4.37;;;3.00;;
15876;SDS011;8037;51.666;7.834;2023-09-07T10:06:55;8.33;;;2.10;;
15876;SDS011;8037;51.666;7.834;2023-09-07T10:09:24;6.50;;;2.27;;
15876;SDS011;8037;51.666;7.834;2023-09-07T10:11:57;3.93;;;2.50;;
15876;SDS011;8037;51.666;7.834;2023-09-07T10:14:24;3.13;;;2.87;;
15876;SDS011;8037;51.666;7.834;2023-09-07T10:16:53;2.33;;;2.13;;
15876;SDS011;8037;51.666;7.834;2023-09-07T10:19:28;4.47;;;2.60;;
15876;SDS011;8037;51.666;7.834;2023-09-07T10:21:54;2.77;;;2.50;;
15876;SDS011;8037;51.666;7.834;2023-09-07T10:24:31;2.47;;;2.27;;
15876;SDS011;8037;51.666;7.834;2023-09-07T10:27:01;3.40;;;2.37;;
15876;SDS011;8037;51.666;7.834;2023-09-07T10:29:28;10.40;;;2.47;;
15876;SDS011;8037;51.666;7.834;2023-09-07T10:31:54;3.67;;;2.90;;
15876;SDS011;8037;51.666;7.834;2023-09-07T10:34:20;2.53;;;2.40;;
15876;SDS011;8037;51.666;7.834;2023-09-07T10:36:47;2.40;;;2.20;;
15876;SDS011;8037;51.666;7.834;2023-09-07T10:39:17;2.53;;;2.40;;
15876;SDS011;8037;51.666;7.834;2023-09-07T10:41:44;3.33;;;3.00;;
15876;SDS011;8037;51.666;7.834;2023-09-07T10:44:10;2.40;;;2.30;;
15876;SDS011;8037;51.666;7.834;2023-09-07T10:46:37;4.10;;;2.27;;
15876;SDS011;8037;51.666;7.834;2023-09-07T10:49:05;2.80;;;2.60;;
15876;SDS011;8037;51.666;7.834;2023-09-07T10:51:32;4.10;;;2.00;;
15876;SDS011;8037;51.666;7.834;2023-09-07T10:53:58;3.67;;;2.77;;
15876;SDS011;8037;51.666;7.834;2023-09-07T10:56:24;5.80;;;3.53;;
15876;SDS011;8037;51.666;7.834;2023-09-07T10:58:53;5.47;;;2.47;;
15876;SDS011;8037;51.666;7.834;2023-09-07T11:01:20;7.67;;;2.53;;
15876;SDS011;8037;51.666;7.834;2023-09-07T11:03:46;13.90;;;3.30;;
15876;SDS011;8037;51.666;7.834;2023-09-07T11:06:14;3.37;;;2.07;;
15876;SDS011;8037;51.666;7.834;2023-09-07T11:08:44;3.47;;;3.00;;
15876;SDS011;8037;51.666;7.834;2023-09-07T11:11:10;2.90;;;2.70;;
15876;SDS011;8037;51.666;7.834;2023-09-07T11:13:36;12.37;;;2.57;;
15876;SDS011;8037;51.666;7.834;2023-09-07T11:16:02;3.40;;;2.37;;
15876;SDS011;8037;51.666;7.834;2023-09-07T11:18:28;1.80;;;1.70;;
15876;SDS011;8037;51.666;7.834;2023-09-07T11:20:54;2.60;;;2.50;;
15876;SDS011;8037;51.666;7.834;2023-09-07T11:23:21;5.80;;;3.40;;
15876;SDS011;8037;51.666;7.834;2023-09-07T11:25:49;4.07;;;2.23;;
15876;SDS011;8037;51.666;7.834;2023-09-07T11:28:15;2.50;;;2.33;;
15876;SDS011;8037;51.666;7.834;2023-09-07T11:30:52;5.43;;;2.27;;
15876;SDS011;8037;51.666;7.834;2023-09-07T11:33:19;3.47;;;1.70;;
15876;SDS011;8037;51.666;7.834;2023-09-07T11:35:45;2.93;;;2.67;;
15876;SDS011;8037;51.666;7.834;2023-09-07T11:38:12;3.07;;;2.10;;
15876;SDS011;8037;51.666;7.834;2023-09-07T11:40:38;2.63;;;2.47;;
15876;SDS011;8037;51.666;7.834;2023-09-07T11:43:04;4.00;;;2.73;;
15876;SDS011;8037;51.666;7.834;2023-09-07T11:45:30;6.63;;;2.23;;
15876;SDS011;8037;51.666;7.834;2023-09-07T11:47:57;3.77;;;2.07;;
15876;SDS011;8037;51.666;7.834;2023-09-07T11:50:23;7.60;;;1.80;;
15876;SDS011;8037;51.666;7.834;2023-09-07T11:52:50;2.53;;;2.33;;
15876;SDS011;8037;51.666;7.834;2023-09-07T11:55:16;3.53;;;2.37;;
15876;SDS011;8037;51.666;7.834;2023-09-07T11:57:41;2.37;;;2.17;;
15876;SDS011;8037;51.666;7.834;2023-09-07T12:00:08;5.43;;;2.40;;
15876;SDS011;8037;51.666;7.834;2023-09-07T12:02:35;10.70;;;2.20;;
15876;SDS011;8037;51.666;7.834;2023-09-07T12:05:02;3.10;;;2.23;;
15876;SDS011;8037;51.666;7.834;2023-09-07T12:07:28;6.27;;;2.03;;
15876;SDS011;8037;51.666;7.834;2023-09-07T12:09:55;2.47;;;2.23;;
15876;SDS011;8037;51.666;7.834;2023-09-07T12:12:22;2.07;;;1.97;;
15876;SDS011;8037;51.666;7.834;2023-09-07T12:14:48;3.53;;;2.07;;
15876;SDS011;8037;51.666;7.834;2023-09-07T12:17:14;1.87;;;1.77;;
15876;SDS011;8037;51.666;7.834;2023-09-07T12:19:40;1.90;;;1.80;;
15876;SDS011;8037;51.666;7.834;2023-09-07T12:22:07;9.50;;;2.80;;
15876;SDS011;8037;51.666;7.834;2023-09-07T12:24:33;4.20;;;2.40;;
15876;SDS011;8037;51.666;7.834;2023-09-07T12:26:59;3.13;;;1.50;;
15876;SDS011;8037;51.666;7.834;2023-09-07T12:29:27;4.83;;;2.20;;
15876;SDS011;8037;51.666;7.834;2023-09-07T12:31:53;3.23;;;2.07;;
15876;SDS011;8037;51.666;7.834;2023-09-07T12:34:19;2.33;;;2.00;;
15876;SDS011;8037;51.666;7.834;2023-09-07T12:36:45;6.27;;;2.10;;
15876;SDS011;8037;51.666;7.834;2023-09-07T12:39:11;1.80;;;1.70;;
15876;SDS011;8037;51.666;7.834;2023-09-07T12:41:38;3.93;;;1.80;;
15876;SDS011;8037;51.666;7.834;2023-09-07T12:44:04;4.20;;;1.77;;
15876;SDS011;8037;51.666;7.834;2023-09-07T12:46:31;3.30;;;1.70;;
15876;SDS011;8037;51.666;7.834;2023-09-07T12:48:57;6.03;;;1.70;;
15876;SDS011;8037;51.666;7.834;2023-09-07T12:51:22;2.50;;;2.30;;
15876;SDS011;8037;51.666;7.834;2023-09-07T12:53:48;2.03;;;1.63;;
15876;SDS011;8037;51.666;7.834;2023-09-07T12:56:15;2.20;;;2.00;;
15876;SDS011;8037;51.666;7.834;2023-09-07T12:58:41;2.03;;;1.63;;
15876;SDS011;8037;51.666;7.834;2023-09-07T13:01:08;2.27;;;2.07;;
15876;SDS011;8037;51.666;7.834;2023-09-07T13:03:35;1.83;;;1.73;;
15876;SDS011;8037;51.666;7.834;2023-09-07T13:06:01;4.53;;;1.87;;
15876;SDS011;8037;51.666;7.834;2023-09-07T13:08:27;1.60;;;1.50;;
15876;SDS011;8037;51.666;7.834;2023-09-07T13:10:54;6.97;;;1.70;;
15876;SDS011;8037;51.666;7.834;2023-09-07T13:13:20;12.70;;;2.00;;
15876;SDS011;8037;51.666;7.834;2023-09-07T13:15:47;2.37;;;1.63;;
15876;SDS011;8037;51.666;7.834;2023-09-07T13:18:13;1.83;;;1.70;;
15876;SDS011;8037;51.666;7.834;2023-09-07T13:20:39;1.77;;;1.63;;
15876;SDS011;8037;51.666;7.834;2023-09-07T13:23:05;2.13;;;1.93;;
15876;SDS011;8037;51.666;7.834;2023-09-07T13:25:31;1.77;;;1.53;;
15876;SDS011;8037;51.666;7.834;2023-09-07T13:27:57;1.90;;;1.80;;
15876;SDS011;8037;51.666;7.834;2023-09-07T13:30:23;1.77;;;1.63;;
15876;SDS011;8037;51.666;7.834;2023-09-07T13:32:49;1.80;;;1.70;;
15876;SDS011;8037;51.666;7.834;2023-09-07T13:35:15;1.70;;;1.60;;
15876;SDS011;8037;51.666;7.834;2023-09-07T13:37:42;3.53;;;1.77;;
15876;SDS011;8037;51.666;7.834;2023-09-07T13:40:08;3.90;;;1.80;;
15876;SDS011;8037;51.666;7.834;2023-09-07T13:42:34;2.50;;;1.97;;
15876;SDS011;8037;51.666;7.834;2023-09-07T13:45:00;6.27;;;2.00;;
15876;SDS011;8037;51.666;7.834;2023-09-07T13:47:26;2.30;;;2.10;;
15876;SDS011;8037;51.666;7.834;2023-09-07T13:49:52;1.47;;;1.37;;
15876;SDS011;8037;51.666;7.834;2023-09-07T13:52:18;1.80;;;1.70;;
15876;SDS011;8037;51.666;7.834;2023-09-07T13:54:44;5.50;;;2.57;;
15876;SDS011;8037;51.666;7.834;2023-09-07T13:57:10;2.70;;;2.50;;
15876;SDS011;8037;51.666;7.834;2023-09-07T13:59:36;2.50;;;2.40;;
15876;SDS011;8037;51.666;7.834;2023-09-07T14:02:02;1.30;;;1.20;;
15876;SDS011;8037;51.666;7.834;2023-09-07T14:04:28;1.97;;;1.87;;
15876;SDS011;8037;51.666;7.834;2023-09-07T14:06:55;6.30;;;2.10;;
15876;SDS011;8037;51.666;7.834;2023-09-07T14:09:21;2.10;;;2.00;;
15876;SDS011;8037;51.666;7.834;2023-09-07T14:11:50;3.43;;;2.27;;
15876;SDS011;8037;51.666;7.834;2023-09-07T14:14:16;4.10;;;2.13;;
15876;SDS011;8037;51.666;7.834;2023-09-07T14:16:42;2.47;;;2.27;;
15876;SDS011;8037;51.666;7.834;2023-09-07T14:19:08;2.03;;;1.93;;
15876;SDS011;8037;51.666;7.834;2023-09-07T14:21:34;2.20;;;2.10;;
15876;SDS011;8037;51.666;7.834;2023-09-07T14:24:00;2.33;;;2.10;;
15876;SDS011;8037;51.666;7.834;2023-09-07T14:26:28;2.70;;;2.03;;
15876;SDS011;8037;51.666;7.834;2023-09-07T14:28:54;2.30;;;2.20;;
15876;SDS011;8037;51.666;7.834;2023-09-07T14:31:20;2.30;;;2.10;;
15876;SDS011;8037;51.666;7.834;2023-09-07T14:33:46;4.43;;;2.33;;
15876;SDS011;8037;51.666;7.834;2023-09-07T14:36:13;3.77;;;2.50;;
15876;SDS011;8037;51.666;7.834;2023-09-07T14:38:39;5.60;;;2.33;;
15876;SDS011;8037;51.666;7.834;2023-09-07T14:41:10;2.10;;;1.93;;
15876;SDS011;8037;51.666;7.834;2023-09-07T14:43:46;2.33;;;2.17;;
15876;SDS011;8037;51.666;7.834;2023-09-07T14:46:12;4.30;;;2.50;;
15876;SDS011;8037;51.666;7.834;2023-09-07T14:48:39;2.80;;;2.17;;
15876;SDS011;8037;51.666;7.834;2023-09-07T14:51:04;2.07;;;1.97;;
15876;SDS011;8037;51.666;7.834;2023-09-07T14:53:30;3.07;;;2.77;;
15876;SDS011;8037;51.666;7.834;2023-09-07T14:55:56;2.30;;;2.20;;
15876;SDS011;8037;51.666;7.834;2023-09-07T14:58:22;3.70;;;2.17;;